createdAt,value
2023-03-17T00:01:05.434Z,100206.16
2023-03-17T00:04:11.076Z,100198.81
2023-03-17T00:07:17.023Z,100190.69
2023-03-17T00:10:25.613Z,100193.06
2023-03-17T00:13:28.728Z,100189.00
2023-03-17T00:16:34.977Z,100196.25
2023-03-17T00:19:36.751Z,100210.72
2023-03-17T00:22:39.876Z,100209.94
2023-03-17T00:25:43.270Z,100208.63
2023-03-17T00:28:45.336Z,100210.28
2023-03-17T00:31:47.002Z,100208.53
2023-03-17T00:34:48.685Z,100209.59
2023-03-17T00:37:53.686Z,100200.38
2023-03-17T00:40:55.534Z,100193.28
2023-03-17T00:43:57.475Z,100192.13
2023-03-17T00:46:59.599Z,100184.50
2023-03-17T00:50:04.912Z,100177.50
2023-03-17T00:53:10.920Z,100172.94
2023-03-17T00:56:15.791Z,100165.09
2023-03-17T00:59:28.918Z,100171.88
2023-03-17T01:02:31.028Z,100168.06
2023-03-17T01:05:34.430Z,100164.53
2023-03-17T01:08:36.705Z,100167.56
2023-03-17T01:11:39.411Z,100161.81
2023-03-17T01:14:43.637Z,100166.88
2023-03-17T01:17:47.506Z,100174.00
2023-03-17T01:20:51.162Z,100170.44
2023-03-17T01:23:53.634Z,100172.16
2023-03-17T01:26:55.587Z,100172.47
2023-03-17T01:29:57.183Z,100179.00
2023-03-17T01:32:59.396Z,100189.25
2023-03-17T01:36:00.994Z,100180.81
2023-03-17T01:39:05.513Z,100174.41
2023-03-17T01:42:07.255Z,100170.91
2023-03-17T01:45:49.185Z,100167.78
2023-03-17T01:49:14.610Z,100146.91
2023-03-17T01:52:19.722Z,100148.66
2023-03-17T01:55:21.423Z,100154.94
2023-03-17T01:58:25.842Z,100130.63
2023-03-17T02:01:33.744Z,100125.41
2023-03-17T02:04:35.889Z,100132.19
2023-03-17T02:07:38.448Z,100117.28
2023-03-17T02:10:42.121Z,100122.66
2023-03-17T02:13:44.784Z,100121.47
2023-03-17T02:16:49.373Z,100132.72
2023-03-17T02:19:51.784Z,100137.47
2023-03-17T02:22:54.997Z,100137.66
2023-03-17T02:25:56.878Z,100147.78
2023-03-17T02:28:58.553Z,100153.41
2023-03-17T02:32:00.494Z,100158.09
2023-03-17T02:35:03.204Z,100156.84
2023-03-17T02:38:04.922Z,100153.16
2023-03-17T02:41:07.270Z,100151.19
2023-03-17T02:44:09.488Z,100154.31
2023-03-17T02:47:11.849Z,100159.44
2023-03-17T02:50:23.005Z,100154.81
2023-03-17T02:53:24.706Z,100157.88
2023-03-17T02:56:26.835Z,100144.41
2023-03-17T02:59:28.585Z,100146.41
2023-03-17T03:02:30.235Z,100137.34
2023-03-17T03:05:32.084Z,100133.88
2023-03-17T03:08:33.854Z,100134.25
2023-03-17T03:11:36.120Z,100138.38
2023-03-17T03:14:37.938Z,100142.47
2023-03-17T03:17:39.558Z,100132.72
2023-03-17T03:20:44.540Z,100137.28
2023-03-17T03:23:47.138Z,100146.78
2023-03-17T03:26:49.076Z,100154.09
2023-03-17T03:29:51.382Z,100154.53
2023-03-17T03:32:53.084Z,100155.59
2023-03-17T03:35:55.330Z,100152.78
2023-03-17T03:38:58.028Z,100156.72
2023-03-17T03:41:59.821Z,100148.41
2023-03-17T03:45:02.466Z,100142.97
2023-03-17T03:48:04.445Z,100136.75
2023-03-17T03:51:06.697Z,100125.69
2023-03-17T03:54:09.486Z,100110.56
2023-03-17T03:57:11.315Z,100105.78
2023-03-17T04:00:17.792Z,100083.81
2023-03-17T04:03:19.609Z,100079.81
2023-03-17T04:06:21.469Z,100072.66
2023-03-17T04:09:23.284Z,100085.56
2023-03-17T04:12:25.016Z,100082.88
2023-03-17T04:15:27.111Z,100084.69
2023-03-17T04:18:28.782Z,100077.88
2023-03-17T04:21:30.549Z,100074.31
2023-03-17T04:24:32.424Z,100089.69
2023-03-17T04:27:34.785Z,100065.09
2023-03-17T04:30:36.568Z,100067.75
2023-03-17T04:33:38.636Z,100066.75
2023-03-17T04:36:40.515Z,100065.19
2023-03-17T04:39:43.397Z,100064.34
2023-03-17T04:42:45.572Z,100078.25
2023-03-17T04:45:47.239Z,100079.13
2023-03-17T04:48:48.931Z,100072.09
2023-03-17T04:51:50.813Z,100088.63
2023-03-17T04:54:52.548Z,100081.88
2023-03-17T04:57:54.186Z,100087.69
2023-03-17T05:00:56.036Z,100085.72
2023-03-17T05:03:57.664Z,100077.56
2023-03-17T05:07:01.820Z,100079.03
2023-03-17T05:10:03.856Z,100079.22
2023-03-17T05:13:05.788Z,100084.75
2023-03-17T05:16:08.041Z,100078.63
2023-03-17T05:19:09.986Z,100078.81
2023-03-17T05:22:11.834Z,100086.38
2023-03-17T05:25:14.164Z,100088.34
2023-03-17T05:28:16.047Z,100084.00
2023-03-17T05:31:19.275Z,100072.63
2023-03-17T05:34:21.240Z,100062.56
2023-03-17T05:37:23.041Z,100062.47
2023-03-17T05:40:24.906Z,100072.22
2023-03-17T05:43:26.943Z,100060.34
2023-03-17T05:46:28.931Z,100060.19
2023-03-17T05:49:31.252Z,100055.88
2023-03-17T05:52:32.854Z,100058.28
2023-03-17T05:55:34.442Z,100056.22
2023-03-17T05:58:36.798Z,100043.00
2023-03-17T06:01:38.611Z,100036.09
2023-03-17T06:04:40.956Z,100053.66
2023-03-17T06:07:53.133Z,100049.56
2023-03-17T06:10:56.792Z,100049.56
2023-03-17T06:13:58.502Z,100058.28
2023-03-17T06:17:00.295Z,100059.13
2023-03-17T06:20:02.285Z,100068.91
2023-03-17T06:23:06.067Z,100080.13
2023-03-17T06:26:08.789Z,100069.34
2023-03-17T06:29:11.862Z,100070.56
2023-03-17T06:32:20.706Z,100058.53
2023-03-17T06:35:23.428Z,100061.41
2023-03-17T06:38:25.644Z,100057.44
2023-03-17T06:41:27.542Z,100056.94
2023-03-17T06:44:29.300Z,100066.34
2023-03-17T06:47:31.262Z,100071.59
2023-03-17T06:50:33.134Z,100080.00
2023-03-17T06:53:35.094Z,100077.91
2023-03-17T06:56:36.726Z,100080.38
2023-03-17T06:59:39.299Z,100076.91
2023-03-17T07:02:42.229Z,100068.34
2023-03-17T07:05:44.120Z,100069.78
2023-03-17T07:08:46.945Z,100060.41
2023-03-17T07:11:48.819Z,100063.09
2023-03-17T07:14:50.446Z,100064.66
2023-03-17T07:17:52.180Z,100066.75
2023-03-17T07:20:53.711Z,100062.28
2023-03-17T07:23:55.786Z,100051.59
2023-03-17T07:26:57.577Z,100052.31
2023-03-17T07:30:02.253Z,100052.41
2023-03-17T07:33:04.479Z,100052.53
2023-03-17T07:36:07.336Z,100047.41
2023-03-17T07:39:11.475Z,100050.50
2023-03-17T07:42:15.899Z,100043.28
2023-03-17T07:45:17.858Z,100047.38
2023-03-17T07:48:19.623Z,100047.03
2023-03-17T07:51:23.260Z,100048.91
2023-03-17T07:54:27.027Z,100058.22
2023-03-17T07:57:28.976Z,100038.78
2023-03-17T08:00:31.383Z,100026.47
2023-03-17T08:03:33.361Z,100033.84
2023-03-17T08:06:35.524Z,100018.50
2023-03-17T08:09:37.540Z,100012.63
2023-03-17T08:12:40.395Z,100010.25
2023-03-17T08:15:42.311Z,100014.09
2023-03-17T08:18:44.084Z,100024.53
2023-03-17T08:21:45.900Z,100024.16
2023-03-17T08:24:47.910Z,100022.16
2023-03-17T08:27:49.553Z,100020.16
2023-03-17T08:30:52.893Z,100024.75
2023-03-17T08:33:57.461Z,100023.19
2023-03-17T08:37:02.735Z,100026.59
2023-03-17T08:40:05.711Z,100023.50
2023-03-17T08:43:08.010Z,100031.50
2023-03-17T08:46:20.464Z,100029.69
2023-03-17T08:49:23.162Z,100022.41
2023-03-17T08:52:25.026Z,100017.13
2023-03-17T08:55:27.477Z,100008.44
2023-03-17T08:58:29.425Z,100006.22
2023-03-17T09:01:32.436Z,100006.41
2023-03-17T09:04:35.056Z,100000.78
2023-03-17T09:07:37.276Z,100001.84
2023-03-17T09:10:39.404Z,100000.06
2023-03-17T09:13:41.582Z,100000.63
2023-03-17T09:16:43.293Z,100003.06
2023-03-17T09:19:45.211Z,99986.38
2023-03-17T09:22:48.600Z,99988.50
2023-03-17T09:25:51.502Z,99988.88
2023-03-17T09:28:53.362Z,99990.16
2023-03-17T09:31:57.136Z,99991.84
2023-03-17T09:34:59.198Z,99981.00
2023-03-17T09:38:01.290Z,99996.19
2023-03-17T09:41:21.357Z,100007.22
2023-03-17T09:44:40.555Z,100011.63
2023-03-17T09:48:16.556Z,100018.47
2023-03-17T09:51:19.901Z,100011.03
2023-03-17T09:54:37.931Z,100016.75
2023-03-17T09:57:40.775Z,100026.97
2023-03-17T10:00:42.498Z,100038.25
2023-03-17T10:03:45.134Z,100032.25
2023-03-17T10:06:48.073Z,100038.75
2023-03-17T10:10:16.940Z,100036.34
2023-03-17T10:13:58.040Z,100028.69
2023-03-17T10:17:18.405Z,100025.19
2023-03-17T10:20:34.037Z,100029.16
2023-03-17T10:23:38.016Z,100024.19
2023-03-17T10:26:46.030Z,100022.06
2023-03-17T10:29:48.660Z,100024.53
2023-03-17T10:32:53.009Z,100022.22
2023-03-17T10:35:54.730Z,100022.53
2023-03-17T10:38:56.874Z,100015.97
2023-03-17T10:42:08.000Z,100004.09
2023-03-17T10:45:31.328Z,99995.47
2023-03-17T10:48:38.934Z,100005.97
2023-03-17T10:51:40.856Z,100004.88
2023-03-17T10:54:48.671Z,100011.56
2023-03-17T10:58:03.206Z,100012.06
2023-03-17T11:01:20.188Z,100016.91
2023-03-17T11:04:35.703Z,100022.53
2023-03-17T11:07:40.359Z,100021.38
2023-03-17T11:10:42.171Z,100017.13
2023-03-17T11:13:43.984Z,100002.91
2023-03-17T11:17:02.676Z,99995.50
2023-03-17T11:20:07.970Z,99979.84
2023-03-17T11:23:28.635Z,99985.69
2023-03-17T11:27:17.119Z,99979.66
2023-03-17T11:31:15.610Z,99975.59
2023-03-17T11:34:31.160Z,99973.19
2023-03-17T11:37:41.729Z,99980.59
2023-03-17T11:40:54.340Z,99964.19
2023-03-17T11:44:26.438Z,99955.78
2023-03-17T11:47:45.093Z,99955.59
2023-03-17T11:51:04.946Z,99945.59
2023-03-17T11:54:19.154Z,99951.84
2023-03-17T11:57:28.392Z,99959.78
2023-03-17T12:00:33.981Z,99951.03
2023-03-17T12:03:43.944Z,99950.03
2023-03-17T12:07:01.736Z,99944.50
2023-03-17T12:10:29.806Z,99942.72
2023-03-17T12:13:54.802Z,99952.97
2023-03-17T12:17:34.620Z,99943.38
2023-03-17T12:20:58.070Z,99940.03
2023-03-17T12:24:20.228Z,99949.47
2023-03-17T12:27:44.228Z,99938.41
2023-03-17T12:30:54.531Z,99934.78
2023-03-17T12:34:05.401Z,99939.84
2023-03-17T12:37:07.827Z,99936.88
2023-03-17T12:40:17.227Z,99935.41
2023-03-17T12:43:58.114Z,99935.69
2023-03-17T12:47:44.020Z,99925.50
2023-03-17T12:51:07.715Z,99922.03
2023-03-17T12:54:27.571Z,99930.25
2023-03-17T12:57:41.263Z,99930.06
2023-03-17T13:00:57.721Z,99932.16
2023-03-17T13:04:26.505Z,99934.25
2023-03-17T13:07:52.057Z,99925.09
2023-03-17T13:11:26.645Z,99922.88
2023-03-17T13:14:47.686Z,99917.25
2023-03-17T13:17:50.830Z,99916.53
2023-03-17T13:21:11.288Z,99914.06
2023-03-17T13:24:15.744Z,99912.16
2023-03-17T13:27:32.869Z,99914.94
2023-03-17T13:30:34.781Z,99915.16
2023-03-17T13:33:43.316Z,99917.88
2023-03-17T13:37:13.621Z,99914.53
2023-03-17T13:40:52.339Z,99909.06
2023-03-17T13:44:24.546Z,99906.88
2023-03-17T13:47:43.757Z,99908.84
2023-03-17T13:50:46.999Z,99896.16
2023-03-17T13:53:56.691Z,99895.50
2023-03-17T13:57:19.585Z,99890.56
2023-03-17T14:00:33.300Z,99892.47
2023-03-17T14:03:40.825Z,99887.94
2023-03-17T14:06:42.668Z,99886.22
2023-03-17T14:09:45.623Z,99869.78
2023-03-17T14:13:21.936Z,99873.44
2023-03-17T14:16:28.672Z,99871.50
2023-03-17T14:19:31.090Z,99877.72
2023-03-17T14:22:33.188Z,99883.75
2023-03-17T14:25:37.749Z,99877.75
2023-03-17T14:28:41.065Z,99871.22
2023-03-17T14:31:52.906Z,99872.72
2023-03-17T14:34:57.739Z,99858.25
2023-03-17T14:38:00.404Z,99849.19
2023-03-17T14:41:06.119Z,99851.81
2023-03-17T14:44:09.139Z,99848.91
2023-03-17T14:47:24.797Z,99843.19
2023-03-17T14:50:36.291Z,99849.84
2023-03-17T14:53:43.403Z,99853.63
2023-03-17T14:57:05.079Z,99849.69
2023-03-17T15:00:34.398Z,99847.94
2023-03-17T15:03:40.652Z,99846.00
2023-03-17T15:07:07.790Z,99846.34
2023-03-17T15:10:26.412Z,99842.94
2023-03-17T15:13:32.693Z,99837.13
2023-03-17T15:16:36.343Z,99827.53
2023-03-17T15:20:00.457Z,99834.59
2023-03-17T15:23:23.522Z,99832.66
2023-03-17T15:26:31.871Z,99830.56
2023-03-17T15:29:34.229Z,99827.50
2023-03-17T15:32:36.436Z,99832.56
2023-03-17T15:35:38.332Z,99836.94
2023-03-17T15:38:40.506Z,99830.59
2023-03-17T15:41:42.351Z,99819.03
2023-03-17T15:44:44.290Z,99816.25
2023-03-17T15:47:47.296Z,99819.66
2023-03-17T15:50:51.360Z,99815.44
2023-03-17T15:53:53.390Z,99809.41
2023-03-17T15:56:55.821Z,99803.53
2023-03-17T15:59:57.672Z,99812.44
2023-03-17T16:03:04.470Z,99802.00
2023-03-17T16:06:14.623Z,99813.19
2023-03-17T16:09:17.581Z,99803.75
2023-03-17T16:12:19.429Z,99793.25
2023-03-17T16:15:23.920Z,99795.31
2023-03-17T16:18:37.633Z,99793.16
2023-03-17T16:21:39.860Z,99800.38
2023-03-17T16:24:43.929Z,99801.47
2023-03-17T16:27:48.775Z,99801.34
2023-03-17T16:30:52.730Z,99802.56
2023-03-17T16:33:55.186Z,99795.53
2023-03-17T16:36:57.091Z,99794.50
2023-03-17T16:39:59.390Z,99799.50
2023-03-17T16:43:10.324Z,99800.69
2023-03-17T16:46:19.696Z,99803.22
2023-03-17T16:49:23.670Z,99802.53
2023-03-17T16:52:28.451Z,99797.41
2023-03-17T16:55:30.636Z,99800.19
2023-03-17T16:58:36.938Z,99805.19
2023-03-17T17:01:38.699Z,99805.00
2023-03-17T17:04:41.375Z,99809.03
2023-03-17T17:07:43.484Z,99802.41
2023-03-17T17:10:45.674Z,99804.75
2023-03-17T17:13:49.295Z,99807.53
2023-03-17T17:16:51.788Z,99820.09
2023-03-17T17:19:53.827Z,99820.78
2023-03-17T17:22:55.811Z,99830.72
2023-03-17T17:25:57.893Z,99835.72
2023-03-17T17:28:59.805Z,99841.44
2023-03-17T17:32:01.516Z,99843.91
2023-03-17T17:35:03.639Z,99854.06
2023-03-17T17:38:15.498Z,99862.50
2023-03-17T17:41:17.483Z,99864.13
2023-03-17T17:44:19.438Z,99876.22
2023-03-17T17:47:21.059Z,99877.81
2023-03-17T17:50:30.459Z,99879.69
2023-03-17T17:53:32.613Z,99887.72
2023-03-17T17:56:36.960Z,99887.03
2023-03-17T17:59:39.048Z,99882.66
2023-03-17T18:02:41.004Z,99882.03
2023-03-17T18:05:43.102Z,99878.41
2023-03-17T18:08:45.424Z,99877.31
2023-03-17T18:11:47.689Z,99857.25
2023-03-17T18:14:49.698Z,99851.13
2023-03-17T18:17:51.965Z,99856.72
2023-03-17T18:20:54.586Z,99861.03
2023-03-17T18:23:57.927Z,99839.00
2023-03-17T18:26:59.641Z,99827.56
2023-03-17T18:30:01.403Z,99833.13
2023-03-17T18:33:18.274Z,99844.16
2023-03-17T18:36:21.051Z,99858.31
2023-03-17T18:39:23.412Z,99851.13
2023-03-17T18:42:25.000Z,99837.09
2023-03-17T18:45:29.211Z,99830.28
2023-03-17T18:48:31.466Z,99835.75
2023-03-17T18:51:34.083Z,99854.81
2023-03-17T18:54:37.370Z,99863.00
2023-03-17T18:57:39.821Z,99854.13
2023-03-17T19:00:41.962Z,99848.56
2023-03-17T19:03:43.945Z,99852.53
2023-03-17T19:06:46.571Z,99849.50
2023-03-17T19:09:48.604Z,99847.88
2023-03-17T19:12:52.189Z,99842.66
2023-03-17T19:15:54.249Z,99825.47
2023-03-17T19:18:56.745Z,99824.53
2023-03-17T19:21:58.821Z,99820.88
2023-03-17T19:25:01.194Z,99819.38
2023-03-17T19:28:04.219Z,99812.84
2023-03-17T19:31:06.202Z,99824.41
2023-03-17T19:34:09.854Z,99806.19
2023-03-17T19:37:11.687Z,99802.06
2023-03-17T19:40:14.335Z,99802.47
2023-03-17T19:43:28.872Z,99821.69
2023-03-17T19:46:38.704Z,99812.31
2023-03-17T19:49:40.974Z,99813.66
2023-03-17T19:52:42.927Z,99808.75
2023-03-17T19:55:45.064Z,99829.75
2023-03-17T19:58:47.303Z,99830.97
2023-03-17T20:01:50.250Z,99828.38
2023-03-17T20:04:52.128Z,99829.50
2023-03-17T20:07:53.819Z,99836.28
2023-03-17T20:10:56.172Z,99840.47
2023-03-17T20:13:58.039Z,99847.38
2023-03-17T20:16:59.865Z,99850.75
2023-03-17T20:20:02.241Z,99846.50
2023-03-17T20:23:03.968Z,99864.41
2023-03-17T20:26:08.537Z,99847.31
2023-03-17T20:29:16.315Z,99848.91
2023-03-17T20:32:18.726Z,99839.97
2023-03-17T20:35:21.601Z,99828.56
2023-03-17T20:38:25.634Z,99838.50
2023-03-17T20:41:27.747Z,99856.34
2023-03-17T20:44:29.657Z,99867.00
2023-03-17T20:47:31.612Z,99871.91
2023-03-17T20:50:34.457Z,99873.00
2023-03-17T20:53:36.313Z,99883.34
2023-03-17T20:56:39.731Z,99861.38
2023-03-17T20:59:41.761Z,99865.69
2023-03-17T21:02:44.870Z,99862.53
2023-03-17T21:05:46.918Z,99862.22
2023-03-17T21:08:49.060Z,99843.44
2023-03-17T21:11:50.934Z,99841.56
2023-03-17T21:14:53.281Z,99848.66
2023-03-17T21:17:55.352Z,99844.88
2023-03-17T21:20:57.813Z,99854.41
2023-03-17T21:24:00.190Z,99858.75
2023-03-17T21:27:04.374Z,99856.97
2023-03-17T21:30:09.855Z,99855.47
2023-03-17T21:33:11.927Z,99855.75
2023-03-17T21:36:14.316Z,99849.63
2023-03-17T21:39:16.229Z,99844.72
2023-03-17T21:42:18.084Z,99854.91
2023-03-17T21:45:20.203Z,99859.13
2023-03-17T21:48:21.759Z,99870.81
2023-03-17T21:51:24.721Z,99868.25
2023-03-17T21:54:28.664Z,99869.19
2023-03-17T21:57:31.014Z,99858.88
2023-03-17T22:00:42.557Z,99856.97
2023-03-17T22:03:46.679Z,99863.50
2023-03-17T22:06:48.578Z,99863.66
2023-03-17T22:09:53.511Z,99867.31
2023-03-17T22:12:55.580Z,99871.41
2023-03-17T22:16:00.303Z,99874.28
2023-03-17T22:19:02.299Z,99878.09
2023-03-17T22:22:04.296Z,99881.38
2023-03-17T22:25:06.604Z,99879.34
2023-03-17T22:28:08.605Z,99880.97
2023-03-17T22:31:25.865Z,99887.78
2023-03-17T22:34:27.889Z,99887.22
2023-03-17T22:37:29.727Z,99884.09
2023-03-17T22:40:31.641Z,99886.78
2023-03-17T22:43:34.617Z,99883.13
2023-03-17T22:46:43.073Z,99890.06
2023-03-17T22:49:44.893Z,99897.28
2023-03-17T22:52:46.890Z,99892.50
2023-03-17T22:55:48.898Z,99888.53
2023-03-17T22:58:50.858Z,99884.44
2023-03-17T23:01:52.733Z,99885.50
2023-03-17T23:04:54.377Z,99881.44
2023-03-17T23:07:56.181Z,99882.50
2023-03-17T23:11:00.497Z,99876.13
2023-03-17T23:14:02.757Z,99870.81
2023-03-17T23:17:06.109Z,99871.66
2023-03-17T23:20:08.552Z,99869.63
2023-03-17T23:23:11.443Z,99868.69
2023-03-17T23:26:13.109Z,99865.91
2023-03-17T23:29:14.901Z,99861.00
2023-03-17T23:32:16.960Z,99879.81
2023-03-17T23:35:19.586Z,99890.16
2023-03-17T23:38:21.806Z,99886.34
2023-03-17T23:41:23.775Z,99889.16
2023-03-17T23:44:25.898Z,99900.38
2023-03-17T23:47:28.526Z,99897.88
2023-03-17T23:50:31.949Z,99902.38
2023-03-17T23:53:34.121Z,99904.72
2023-03-17T23:56:36.314Z,99901.53
2023-03-17T23:59:37.995Z,99899.97
